sensor_id;sensor_type;location;lat;lon;timestamp;P1;durP1;ratioP1;P2;durP2;ratioP2
27187;SDS011;14708;50.872;5.306;2023-12-20T00:00:25;2.97;;;1.60;;
27187;SDS011;14708;50.872;5.306;2023-12-20T00:02:51;2.35;;;1.30;;
27187;SDS011;14708;50.872;5.306;2023-12-20T00:05:16;3.25;;;1.55;;
27187;SDS011;14708;50.872;5.306;2023-12-20T00:07:42;3.05;;;1.70;;
27187;SDS011;14708;50.872;5.306;2023-12-20T00:10:08;2.30;;;1.60;;
27187;SDS011;14708;50.872;5.306;2023-12-20T00:12:34;2.38;;;1.30;;
27187;SDS011;14708;50.872;5.306;2023-12-20T00:14:59;3.58;;;1.77;;
27187;SDS011;14708;50.872;5.306;2023-12-20T00:17:25;2.72;;;1.58;;
27187;SDS011;14708;50.872;5.306;2023-12-20T00:19:51;3.20;;;1.52;;
27187;SDS011;14708;50.872;5.306;2023-12-20T00:22:16;2.75;;;1.48;;
27187;SDS011;14708;50.872;5.306;2023-12-20T00:24:42;2.47;;;1.40;;
27187;SDS011;14708;50.872;5.306;2023-12-20T00:27:08;4.10;;;1.65;;
27187;SDS011;14708;50.872;5.306;2023-12-20T00:29:33;1.77;;;1.27;;
27187;SDS011;14708;50.872;5.306;2023-12-20T00:31:59;1.95;;;1.40;;
27187;SDS011;14708;50.872;5.306;2023-12-20T00:34:25;3.63;;;1.45;;
27187;SDS011;14708;50.872;5.306;2023-12-20T00:36:50;4.22;;;1.80;;
27187;SDS011;14708;50.872;5.306;2023-12-20T00:39:16;2.58;;;1.50;;
27187;SDS011;14708;50.872;5.306;2023-12-20T00:41:42;2.85;;;1.42;;
27187;SDS011;14708;50.872;5.306;2023-12-20T00:44:07;2.78;;;1.58;;
27187;SDS011;14708;50.872;5.306;2023-12-20T00:46:33;2.80;;;1.50;;
27187;SDS011;14708;50.872;5.306;2023-12-20T00:48:59;3.88;;;1.85;;
27187;SDS011;14708;50.872;5.306;2023-12-20T00:51:24;3.72;;;1.58;;
27187;SDS011;14708;50.872;5.306;2023-12-20T00:53:50;3.47;;;1.58;;
27187;SDS011;14708;50.872;5.306;2023-12-20T00:56:19;2.85;;;1.55;;
27187;SDS011;14708;50.872;5.306;2023-12-20T00:58:45;2.75;;;1.42;;
27187;SDS011;14708;50.872;5.306;2023-12-20T01:01:11;3.22;;;1.30;;
27187;SDS011;14708;50.872;5.306;2023-12-20T01:03:37;2.42;;;1.35;;
27187;SDS011;14708;50.872;5.306;2023-12-20T01:06:03;2.63;;;1.30;;
27187;SDS011;14708;50.872;5.306;2023-12-20T01:08:30;2.15;;;1.30;;
27187;SDS011;14708;50.872;5.306;2023-12-20T01:10:56;2.45;;;1.52;;
27187;SDS011;14708;50.872;5.306;2023-12-20T01:13:21;2.03;;;1.50;;
27187;SDS011;14708;50.872;5.306;2023-12-20T01:15:47;2.42;;;1.20;;
27187;SDS011;14708;50.872;5.306;2023-12-20T01:18:13;2.35;;;1.17;;
27187;SDS011;14708;50.872;5.306;2023-12-20T01:20:39;2.03;;;1.10;;
27187;SDS011;14708;50.872;5.306;2023-12-20T01:23:05;2.92;;;1.40;;
27187;SDS011;14708;50.872;5.306;2023-12-20T01:25:32;2.00;;;1.40;;
27187;SDS011;14708;50.872;5.306;2023-12-20T01:27:58;3.63;;;1.38;;
27187;SDS011;14708;50.872;5.306;2023-12-20T01:30:23;2.05;;;1.20;;
27187;SDS011;14708;50.872;5.306;2023-12-20T01:32:49;2.53;;;1.38;;
27187;SDS011;14708;50.872;5.306;2023-12-20T01:35:15;3.20;;;1.52;;
27187;SDS011;14708;50.872;5.306;2023-12-20T01:37:40;2.20;;;1.40;;
27187;SDS011;14708;50.872;5.306;2023-12-20T01:40:06;2.35;;;1.35;;
27187;SDS011;14708;50.872;5.306;2023-12-20T01:42:33;2.30;;;1.50;;
27187;SDS011;14708;50.872;5.306;2023-12-20T01:44:58;2.00;;;1.25;;
27187;SDS011;14708;50.872;5.306;2023-12-20T01:47:24;2.35;;;1.48;;
27187;SDS011;14708;50.872;5.306;2023-12-20T01:49:52;2.95;;;1.30;;
27187;SDS011;14708;50.872;5.306;2023-12-20T01:52:18;2.90;;;1.50;;
27187;SDS011;14708;50.872;5.306;2023-12-20T01:54:45;3.47;;;1.33;;
27187;SDS011;14708;50.872;5.306;2023-12-20T01:57:12;3.13;;;1.48;;
27187;SDS011;14708;50.872;5.306;2023-12-20T01:59:39;2.00;;;1.30;;
27187;SDS011;14708;50.872;5.306;2023-12-20T02:02:05;2.22;;;1.25;;
27187;SDS011;14708;50.872;5.306;2023-12-20T02:04:32;1.63;;;1.02;;
27187;SDS011;14708;50.872;5.306;2023-12-20T02:06:58;2.38;;;1.20;;
27187;SDS011;14708;50.872;5.306;2023-12-20T02:09:24;1.80;;;1.27;;
27187;SDS011;14708;50.872;5.306;2023-12-20T02:11:50;1.80;;;1.08;;
27187;SDS011;14708;50.872;5.306;2023-12-20T02:14:15;2.00;;;1.38;;
27187;SDS011;14708;50.872;5.306;2023-12-20T02:16:41;2.75;;;1.63;;
27187;SDS011;14708;50.872;5.306;2023-12-20T02:19:13;1.90;;;1.42;;
27187;SDS011;14708;50.872;5.306;2023-12-20T02:21:40;2.85;;;1.38;;
27187;SDS011;14708;50.872;5.306;2023-12-20T02:24:06;1.85;;;1.17;;
27187;SDS011;14708;50.872;5.306;2023-12-20T02:26:32;1.10;;;1.00;;
27187;SDS011;14708;50.872;5.306;2023-12-20T02:28:58;3.22;;;1.40;;
27187;SDS011;14708;50.872;5.306;2023-12-20T02:31:25;1.52;;;1.13;;
27187;SDS011;14708;50.872;5.306;2023-12-20T02:33:50;2.65;;;1.27;;
27187;SDS011;14708;50.872;5.306;2023-12-20T02:36:16;2.90;;;1.70;;
27187;SDS011;14708;50.872;5.306;2023-12-20T02:38:41;1.40;;;1.20;;
27187;SDS011;14708;50.872;5.306;2023-12-20T02:41:07;1.73;;;1.20;;
27187;SDS011;14708;50.872;5.306;2023-12-20T02:43:33;1.85;;;1.23;;
27187;SDS011;14708;50.872;5.306;2023-12-20T02:45:58;1.42;;;1.10;;
27187;SDS011;14708;50.872;5.306;2023-12-20T02:48:24;1.55;;;1.08;;
27187;SDS011;14708;50.872;5.306;2023-12-20T02:50:50;2.65;;;1.52;;
27187;SDS011;14708;50.872;5.306;2023-12-20T02:53:16;2.85;;;1.30;;
27187;SDS011;14708;50.872;5.306;2023-12-20T02:55:42;1.33;;;0.93;;
27187;SDS011;14708;50.872;5.306;2023-12-20T02:58:07;1.95;;;1.10;;
27187;SDS011;14708;50.872;5.306;2023-12-20T03:00:33;1.88;;;1.15;;
27187;SDS011;14708;50.872;5.306;2023-12-20T03:02:59;2.63;;;1.42;;
27187;SDS011;14708;50.872;5.306;2023-12-20T03:05:24;1.23;;;1.13;;
27187;SDS011;14708;50.872;5.306;2023-12-20T03:07:50;3.70;;;1.70;;
27187;SDS011;14708;50.872;5.306;2023-12-20T03:10:16;1.85;;;1.20;;
27187;SDS011;14708;50.872;5.306;2023-12-20T03:12:43;2.22;;;1.20;;
27187;SDS011;14708;50.872;5.306;2023-12-20T03:15:09;1.23;;;0.85;;
27187;SDS011;14708;50.872;5.306;2023-12-20T03:17:35;2.42;;;1.10;;
27187;SDS011;14708;50.872;5.306;2023-12-20T03:20:01;2.15;;;1.40;;
27187;SDS011;14708;50.872;5.306;2023-12-20T03:22:27;2.30;;;1.10;;
27187;SDS011;14708;50.872;5.306;2023-12-20T03:24:53;1.38;;;1.20;;
27187;SDS011;14708;50.872;5.306;2023-12-20T03:27:19;1.73;;;1.05;;
27187;SDS011;14708;50.872;5.306;2023-12-20T03:29:44;1.42;;;0.98;;
27187;SDS011;14708;50.872;5.306;2023-12-20T03:32:10;2.45;;;1.40;;
27187;SDS011;14708;50.872;5.306;2023-12-20T03:34:36;1.40;;;1.10;;
27187;SDS011;14708;50.872;5.306;2023-12-20T03:37:01;1.00;;;0.90;;
27187;SDS011;14708;50.872;5.306;2023-12-20T03:39:27;3.13;;;1.10;;
27187;SDS011;14708;50.872;5.306;2023-12-20T03:41:53;2.42;;;1.33;;
27187;SDS011;14708;50.872;5.306;2023-12-20T03:44:18;1.35;;;1.02;;
27187;SDS011;14708;50.872;5.306;2023-12-20T03:46:45;1.38;;;1.10;;
27187;SDS011;14708;50.872;5.306;2023-12-20T03:49:11;2.25;;;1.00;;
27187;SDS011;14708;50.872;5.306;2023-12-20T03:51:37;2.15;;;1.10;;
27187;SDS011;14708;50.872;5.306;2023-12-20T03:54:02;2.80;;;1.13;;
27187;SDS011;14708;50.872;5.306;2023-12-20T03:56:28;1.77;;;1.20;;
27187;SDS011;14708;50.872;5.306;2023-12-20T03:58:54;1.10;;;0.95;;
27187;SDS011;14708;50.872;5.306;2023-12-20T04:01:20;2.45;;;1.25;;
27187;SDS011;14708;50.872;5.306;2023-12-20T04:03:45;1.90;;;1.35;;
27187;SDS011;14708;50.872;5.306;2023-12-20T04:06:16;1.10;;;0.95;;
27187;SDS011;14708;50.872;5.306;2023-12-20T04:08:44;1.63;;;0.90;;
27187;SDS011;14708;50.872;5.306;2023-12-20T04:11:10;1.33;;;0.80;;
27187;SDS011;14708;50.872;5.306;2023-12-20T04:13:36;2.05;;;0.98;;
27187;SDS011;14708;50.872;5.306;2023-12-20T04:16:01;1.95;;;0.90;;
27187;SDS011;14708;50.872;5.306;2023-12-20T04:18:27;1.70;;;0.90;;
27187;SDS011;14708;50.872;5.306;2023-12-20T04:20:53;1.80;;;1.17;;
27187;SDS011;14708;50.872;5.306;2023-12-20T04:23:19;1.90;;;0.98;;
27187;SDS011;14708;50.872;5.306;2023-12-20T04:25:44;1.52;;;1.15;;
27187;SDS011;14708;50.872;5.306;2023-12-20T04:28:10;2.50;;;1.10;;
27187;SDS011;14708;50.872;5.306;2023-12-20T04:30:36;2.00;;;0.98;;
27187;SDS011;14708;50.872;5.306;2023-12-20T04:33:02;1.45;;;1.00;;
27187;SDS011;14708;50.872;5.306;2023-12-20T04:35:27;1.77;;;0.90;;
27187;SDS011;14708;50.872;5.306;2023-12-20T04:37:53;1.70;;;1.10;;
27187;SDS011;14708;50.872;5.306;2023-12-20T04:40:18;2.03;;;1.15;;
27187;SDS011;14708;50.872;5.306;2023-12-20T04:42:45;0.80;;;0.73;;
27187;SDS011;14708;50.872;5.306;2023-12-20T04:45:10;1.60;;;0.90;;
27187;SDS011;14708;50.872;5.306;2023-12-20T04:47:38;1.30;;;1.10;;
27187;SDS011;14708;50.872;5.306;2023-12-20T04:50:04;1.73;;;1.35;;
27187;SDS011;14708;50.872;5.306;2023-12-20T04:52:30;1.27;;;1.10;;
27187;SDS011;14708;50.872;5.306;2023-12-20T04:54:56;1.48;;;0.90;;
27187;SDS011;14708;50.872;5.306;2023-12-20T04:57:22;2.20;;;1.13;;
27187;SDS011;14708;50.872;5.306;2023-12-20T04:59:47;1.35;;;0.90;;
27187;SDS011;14708;50.872;5.306;2023-12-20T05:02:13;2.33;;;1.10;;
27187;SDS011;14708;50.872;5.306;2023-12-20T05:04:39;1.88;;;1.17;;
27187;SDS011;14708;50.872;5.306;2023-12-20T05:07:05;1.45;;;1.17;;
27187;SDS011;14708;50.872;5.306;2023-12-20T05:09:31;2.25;;;1.23;;
27187;SDS011;14708;50.872;5.306;2023-12-20T05:11:57;1.88;;;1.15;;
27187;SDS011;14708;50.872;5.306;2023-12-20T05:14:22;1.05;;;0.95;;
27187;SDS011;14708;50.872;5.306;2023-12-20T05:16:48;1.70;;;0.77;;
27187;SDS011;14708;50.872;5.306;2023-12-20T05:19:14;1.90;;;1.13;;
27187;SDS011;14708;50.872;5.306;2023-12-20T05:21:39;2.28;;;1.33;;
27187;SDS011;14708;50.872;5.306;2023-12-20T05:24:05;1.83;;;0.80;;
27187;SDS011;14708;50.872;5.306;2023-12-20T05:26:31;0.93;;;0.75;;
27187;SDS011;14708;50.872;5.306;2023-12-20T05:28:56;1.27;;;0.90;;
27187;SDS011;14708;50.872;5.306;2023-12-20T05:31:22;1.50;;;0.90;;
27187;SDS011;14708;50.872;5.306;2023-12-20T05:33:48;1.20;;;0.95;;
27187;SDS011;14708;50.872;5.306;2023-12-20T05:36:13;1.52;;;0.88;;
27187;SDS011;14708;50.872;5.306;2023-12-20T05:38:40;2.45;;;1.15;;
27187;SDS011;14708;50.872;5.306;2023-12-20T05:41:05;1.65;;;1.15;;
27187;SDS011;14708;50.872;5.306;2023-12-20T05:43:31;1.85;;;1.10;;
27187;SDS011;14708;50.872;5.306;2023-12-20T05:45:57;1.48;;;1.00;;
27187;SDS011;14708;50.872;5.306;2023-12-20T05:48:23;3.00;;;1.05;;
27187;SDS011;14708;50.872;5.306;2023-12-20T05:50:49;2.13;;;1.30;;
27187;SDS011;14708;50.872;5.306;2023-12-20T05:53:14;2.22;;;1.33;;
27187;SDS011;14708;50.872;5.306;2023-12-20T05:55:40;2.60;;;1.20;;
27187;SDS011;14708;50.872;5.306;2023-12-20T05:58:05;1.20;;;1.00;;
27187;SDS011;14708;50.872;5.306;2023-12-20T06:00:31;1.88;;;1.05;;
27187;SDS011;14708;50.872;5.306;2023-12-20T06:02:57;2.38;;;1.20;;
27187;SDS011;14708;50.872;5.306;2023-12-20T06:05:22;1.10;;;0.70;;
27187;SDS011;14708;50.872;5.306;2023-12-20T06:07:48;3.03;;;1.10;;
27187;SDS011;14708;50.872;5.306;2023-12-20T06:10:15;1.38;;;1.00;;
27187;SDS011;14708;50.872;5.306;2023-12-20T06:12:41;1.77;;;0.90;;
27187;SDS011;14708;50.872;5.306;2023-12-20T06:15:07;2.20;;;1.23;;
27187;SDS011;14708;50.872;5.306;2023-12-20T06:17:33;1.70;;;1.00;;
27187;SDS011;14708;50.872;5.306;2023-12-20T06:20:00;1.75;;;0.98;;
27187;SDS011;14708;50.872;5.306;2023-12-20T06:22:26;2.13;;;0.98;;
27187;SDS011;14708;50.872;5.306;2023-12-20T06:24:51;1.13;;;0.90;;
27187;SDS011;14708;50.872;5.306;2023-12-20T06:27:17;2.33;;;1.20;;
27187;SDS011;14708;50.872;5.306;2023-12-20T06:29:43;1.55;;;1.00;;
27187;SDS011;14708;50.872;5.306;2023-12-20T06:32:10;1.52;;;0.93;;
27187;SDS011;14708;50.872;5.306;2023-12-20T06:34:35;2.13;;;0.90;;
27187;SDS011;14708;50.872;5.306;2023-12-20T06:37:01;1.00;;;0.88;;
27187;SDS011;14708;50.872;5.306;2023-12-20T06:39:27;1.45;;;0.90;;
27187;SDS011;14708;50.872;5.306;2023-12-20T06:41:53;1.75;;;1.20;;
27187;SDS011;14708;50.872;5.306;2023-12-20T06:44:18;1.70;;;1.33;;
27187;SDS011;14708;50.872;5.306;2023-12-20T06:46:44;0.63;;;0.63;;
27187;SDS011;14708;50.872;5.306;2023-12-20T06:49:10;0.88;;;0.77;;
27187;SDS011;14708;50.872;5.306;2023-12-20T06:51:35;1.20;;;1.10;;
27187;SDS011;14708;50.872;5.306;2023-12-20T06:54:01;1.90;;;0.90;;
27187;SDS011;14708;50.872;5.306;2023-12-20T06:56:27;3.40;;;1.45;;
27187;SDS011;14708;50.872;5.306;2023-12-20T06:58:53;1.45;;;0.82;;
27187;SDS011;14708;50.872;5.306;2023-12-20T07:01:19;1.02;;;0.80;;
27187;SDS011;14708;50.872;5.306;2023-12-20T07:03:44;1.17;;;0.85;;
27187;SDS011;14708;50.872;5.306;2023-12-20T07:06:10;2.28;;;1.35;;
27187;SDS011;14708;50.872;5.306;2023-12-20T07:08:36;4.22;;;1.35;;
27187;SDS011;14708;50.872;5.306;2023-12-20T07:11:01;3.85;;;1.20;;
27187;SDS011;14708;50.872;5.306;2023-12-20T07:13:27;2.45;;;1.10;;
27187;SDS011;14708;50.872;5.306;2023-12-20T07:15:53;2.13;;;1.17;;
27187;SDS011;14708;50.872;5.306;2023-12-20T07:18:19;2.85;;;1.75;;
27187;SDS011;14708;50.872;5.306;2023-12-20T07:20:44;2.55;;;1.10;;
27187;SDS011;14708;50.872;5.306;2023-12-20T07:23:10;1.05;;;0.85;;
27187;SDS011;14708;50.872;5.306;2023-12-20T07:25:36;1.15;;;0.98;;
27187;SDS011;14708;50.872;5.306;2023-12-20T07:28:02;1.10;;;0.77;;
27187;SDS011;14708;50.872;5.306;2023-12-20T07:30:27;2.28;;;1.20;;
27187;SDS011;14708;50.872;5.306;2023-12-20T07:32:53;1.83;;;1.30;;
27187;SDS011;14708;50.872;5.306;2023-12-20T07:35:19;1.52;;;0.98;;
27187;SDS011;14708;50.872;5.306;2023-12-20T07:37:44;3.38;;;1.35;;
27187;SDS011;14708;50.872;5.306;2023-12-20T07:40:10;1.63;;;0.70;;
27187;SDS011;14708;50.872;5.306;2023-12-20T07:42:36;2.50;;;1.00;;
27187;SDS011;14708;50.872;5.306;2023-12-20T07:45:03;1.75;;;0.90;;
27187;SDS011;14708;50.872;5.306;2023-12-20T07:47:29;2.35;;;1.00;;
27187;SDS011;14708;50.872;5.306;2023-12-20T07:49:54;2.75;;;1.20;;
27187;SDS011;14708;50.872;5.306;2023-12-20T07:52:20;2.78;;;1.10;;
27187;SDS011;14708;50.872;5.306;2023-12-20T07:54:47;1.75;;;0.98;;
27187;SDS011;14708;50.872;5.306;2023-12-20T07:57:13;2.47;;;1.05;;
27187;SDS011;14708;50.872;5.306;2023-12-20T07:59:39;1.30;;;0.80;;
27187;SDS011;14708;50.872;5.306;2023-12-20T08:02:04;4.55;;;1.27;;
27187;SDS011;14708;50.872;5.306;2023-12-20T08:04:31;1.55;;;0.77;;
27187;SDS011;14708;50.872;5.306;2023-12-20T08:06:57;2.88;;;1.05;;
27187;SDS011;14708;50.872;5.306;2023-12-20T08:09:23;1.63;;;0.77;;
27187;SDS011;14708;50.872;5.306;2023-12-20T08:11:49;2.25;;;1.02;;
27187;SDS011;14708;50.872;5.306;2023-12-20T08:14:15;2.08;;;1.15;;
27187;SDS011;14708;50.872;5.306;2023-12-20T08:16:41;2.25;;;1.38;;
27187;SDS011;14708;50.872;5.306;2023-12-20T08:19:06;2.13;;;1.25;;
27187;SDS011;14708;50.872;5.306;2023-12-20T08:21:32;4.95;;;1.05;;
27187;SDS011;14708;50.872;5.306;2023-12-20T08:23:58;4.35;;;1.30;;
27187;SDS011;14708;50.872;5.306;2023-12-20T08:26:25;3.90;;;1.60;;
27187;SDS011;14708;50.872;5.306;2023-12-20T08:28:51;11.27;;;2.78;;
27187;SDS011;14708;50.872;5.306;2023-12-20T08:31:18;8.75;;;2.95;;
27187;SDS011;14708;50.872;5.306;2023-12-20T08:33:44;9.77;;;1.80;;
27187;SDS011;14708;50.872;5.306;2023-12-20T08:36:10;12.48;;;2.72;;
27187;SDS011;14708;50.872;5.306;2023-12-20T08:38:36;13.63;;;3.35;;
27187;SDS011;14708;50.872;5.306;2023-12-20T08:41:02;11.48;;;2.88;;
27187;SDS011;14708;50.872;5.306;2023-12-20T08:43:30;13.85;;;2.83;;
27187;SDS011;14708;50.872;5.306;2023-12-20T08:45:56;13.27;;;3.83;;
27187;SDS011;14708;50.872;5.306;2023-12-20T08:48:22;11.57;;;3.40;;
27187;SDS011;14708;50.872;5.306;2023-12-20T08:50:48;12.15;;;3.15;;
27187;SDS011;14708;50.872;5.306;2023-12-20T08:55:43;12.45;;;3.60;;
27187;SDS011;14708;50.872;5.306;2023-12-20T08:58:09;9.07;;;3.00;;
27187;SDS011;14708;50.872;5.306;2023-12-20T09:00:34;13.90;;;3.95;;
27187;SDS011;14708;50.872;5.306;2023-12-20T09:03:03;7.55;;;2.42;;
27187;SDS011;14708;50.872;5.306;2023-12-20T09:05:29;8.98;;;2.88;;
27187;SDS011;14708;50.872;5.306;2023-12-20T09:07:55;8.90;;;2.88;;
27187;SDS011;14708;50.872;5.306;2023-12-20T09:10:20;11.45;;;3.47;;
27187;SDS011;14708;50.872;5.306;2023-12-20T09:12:49;9.95;;;2.92;;
27187;SDS011;14708;50.872;5.306;2023-12-20T09:15:16;7.43;;;3.10;;
27187;SDS011;14708;50.872;5.306;2023-12-20T09:17:41;9.13;;;2.80;;
27187;SDS011;14708;50.872;5.306;2023-12-20T09:20:08;8.30;;;3.03;;
27187;SDS011;14708;50.872;5.306;2023-12-20T09:22:34;7.93;;;2.75;;
27187;SDS011;14708;50.872;5.306;2023-12-20T09:25:00;9.10;;;2.40;;
27187;SDS011;14708;50.872;5.306;2023-12-20T09:27:27;6.82;;;2.97;;
27187;SDS011;14708;50.872;5.306;2023-12-20T09:29:53;11.52;;;3.28;;
27187;SDS011;14708;50.872;5.306;2023-12-20T09:32:19;11.02;;;2.70;;
27187;SDS011;14708;50.872;5.306;2023-12-20T09:34:45;8.80;;;3.00;;
27187;SDS011;14708;50.872;5.306;2023-12-20T09:37:12;9.50;;;2.95;;
27187;SDS011;14708;50.872;5.306;2023-12-20T09:39:38;8.00;;;2.83;;
27187;SDS011;14708;50.872;5.306;2023-12-20T09:42:04;9.45;;;2.55;;
27187;SDS011;14708;50.872;5.306;2023-12-20T09:44:31;12.32;;;3.17;;
27187;SDS011;14708;50.872;5.306;2023-12-20T09:46:59;8.88;;;2.67;;
27187;SDS011;14708;50.872;5.306;2023-12-20T09:49:30;12.55;;;2.88;;
27187;SDS011;14708;50.872;5.306;2023-12-20T09:51:57;12.35;;;3.17;;
27187;SDS011;14708;50.872;5.306;2023-12-20T09:54:25;10.70;;;3.47;;
27187;SDS011;14708;50.872;5.306;2023-12-20T09:56:52;9.95;;;3.22;;
27187;SDS011;14708;50.872;5.306;2023-12-20T09:59:17;12.05;;;3.75;;
27187;SDS011;14708;50.872;5.306;2023-12-20T10:01:43;13.52;;;3.47;;
27187;SDS011;14708;50.872;5.306;2023-12-20T10:04:09;9.90;;;2.60;;
27187;SDS011;14708;50.872;5.306;2023-12-20T10:06:40;6.53;;;2.55;;
27187;SDS011;14708;50.872;5.306;2023-12-20T10:09:06;10.50;;;2.33;;
27187;SDS011;14708;50.872;5.306;2023-12-20T10:11:32;7.75;;;2.75;;
27187;SDS011;14708;50.872;5.306;2023-12-20T10:14:02;6.90;;;2.40;;
27187;SDS011;14708;50.872;5.306;2023-12-20T10:16:29;7.88;;;2.17;;
27187;SDS011;14708;50.872;5.306;2023-12-20T10:18:55;7.38;;;2.55;;
27187;SDS011;14708;50.872;5.306;2023-12-20T10:21:22;10.32;;;3.05;;
27187;SDS011;14708;50.872;5.306;2023-12-20T10:23:49;5.05;;;2.30;;
27187;SDS011;14708;50.872;5.306;2023-12-20T10:26:21;7.78;;;3.03;;
27187;SDS011;14708;50.872;5.306;2023-12-20T10:28:52;9.23;;;2.45;;
27187;SDS011;14708;50.872;5.306;2023-12-20T10:31:32;6.17;;;2.23;;
27187;SDS011;14708;50.872;5.306;2023-12-20T10:34:00;8.15;;;2.58;;
27187;SDS011;14708;50.872;5.306;2023-12-20T10:36:28;5.57;;;2.85;;
27187;SDS011;14708;50.872;5.306;2023-12-20T10:38:56;7.10;;;2.77;;
27187;SDS011;14708;50.872;5.306;2023-12-20T10:41:26;7.50;;;2.53;;
27187;SDS011;14708;50.872;5.306;2023-12-20T10:44:00;7.38;;;2.10;;
27187;SDS011;14708;50.872;5.306;2023-12-20T10:46:28;7.70;;;3.00;;
27187;SDS011;14708;50.872;5.306;2023-12-20T10:48:55;6.22;;;2.33;;
27187;SDS011;14708;50.872;5.306;2023-12-20T10:51:21;7.95;;;3.03;;
27187;SDS011;14708;50.872;5.306;2023-12-20T10:53:49;5.63;;;1.80;;
27187;SDS011;14708;50.872;5.306;2023-12-20T10:56:16;5.70;;;2.15;;
27187;SDS011;14708;50.872;5.306;2023-12-20T10:58:43;6.45;;;2.78;;
27187;SDS011;14708;50.872;5.306;2023-12-20T11:01:10;5.50;;;2.47;;
27187;SDS011;14708;50.872;5.306;2023-12-20T11:03:51;7.13;;;2.25;;
27187;SDS011;14708;50.872;5.306;2023-12-20T11:14:34;5.57;;;1.88;;
27187;SDS011;14708;50.872;5.306;2023-12-20T11:17:10;5.43;;;2.33;;
27187;SDS011;14708;50.872;5.306;2023-12-20T11:22:24;7.65;;;2.53;;
27187;SDS011;14708;50.872;5.306;2023-12-20T11:24:51;5.45;;;2.08;;
27187;SDS011;14708;50.872;5.306;2023-12-20T11:27:18;4.63;;;1.63;;
27187;SDS011;14708;50.872;5.306;2023-12-20T11:30:03;3.85;;;1.73;;
27187;SDS011;14708;50.872;5.306;2023-12-20T11:32:32;6.97;;;2.03;;
27187;SDS011;14708;50.872;5.306;2023-12-20T11:37:37;7.38;;;2.40;;
27187;SDS011;14708;50.872;5.306;2023-12-20T11:40:08;6.63;;;1.85;;
27187;SDS011;14708;50.872;5.306;2023-12-20T11:42:39;4.45;;;1.80;;
27187;SDS011;14708;50.872;5.306;2023-12-20T11:45:19;7.03;;;1.83;;
27187;SDS011;14708;50.872;5.306;2023-12-20T11:47:51;6.53;;;2.35;;
27187;SDS011;14708;50.872;5.306;2023-12-20T11:50:19;7.25;;;2.17;;
27187;SDS011;14708;50.872;5.306;2023-12-20T11:52:45;12.27;;;2.58;;
27187;SDS011;14708;50.872;5.306;2023-12-20T11:55:11;6.57;;;2.40;;
27187;SDS011;14708;50.872;5.306;2023-12-20T11:57:37;6.93;;;2.33;;
27187;SDS011;14708;50.872;5.306;2023-12-20T12:00:03;5.72;;;2.00;;
27187;SDS011;14708;50.872;5.306;2023-12-20T12:02:30;5.80;;;1.88;;
27187;SDS011;14708;50.872;5.306;2023-12-20T12:04:55;6.15;;;2.15;;
27187;SDS011;14708;50.872;5.306;2023-12-20T12:07:21;5.60;;;1.92;;
27187;SDS011;14708;50.872;5.306;2023-12-20T12:09:47;4.45;;;2.10;;
27187;SDS011;14708;50.872;5.306;2023-12-20T12:12:13;6.57;;;2.28;;
27187;SDS011;14708;50.872;5.306;2023-12-20T12:14:40;6.85;;;2.35;;
27187;SDS011;14708;50.872;5.306;2023-12-20T12:17:12;11.70;;;2.05;;
27187;SDS011;14708;50.872;5.306;2023-12-20T12:19:39;5.60;;;2.17;;
27187;SDS011;14708;50.872;5.306;2023-12-20T12:24:33;4.63;;;1.60;;
27187;SDS011;14708;50.872;5.306;2023-12-20T12:26:59;4.32;;;1.75;;
27187;SDS011;14708;50.872;5.306;2023-12-20T12:29:25;10.15;;;2.33;;
27187;SDS011;14708;50.872;5.306;2023-12-20T12:31:50;8.48;;;2.35;;
27187;SDS011;14708;50.872;5.306;2023-12-20T12:34:19;9.25;;;2.17;;
27187;SDS011;14708;50.872;5.306;2023-12-20T12:36:45;5.45;;;2.30;;
27187;SDS011;14708;50.872;5.306;2023-12-20T12:39:13;3.78;;;2.08;;
27187;SDS011;14708;50.872;5.306;2023-12-20T12:41:42;5.80;;;1.92;;
27187;SDS011;14708;50.872;5.306;2023-12-20T12:44:07;6.93;;;1.70;;
27187;SDS011;14708;50.872;5.306;2023-12-20T12:46:33;4.85;;;1.70;;
27187;SDS011;14708;50.872;5.306;2023-12-20T12:48:59;6.05;;;1.73;;
27187;SDS011;14708;50.872;5.306;2023-12-20T12:51:25;10.27;;;2.33;;
27187;SDS011;14708;50.872;5.306;2023-12-20T12:53:53;4.70;;;1.63;;
27187;SDS011;14708;50.872;5.306;2023-12-20T12:56:20;10.93;;;2.17;;
27187;SDS011;14708;50.872;5.306;2023-12-20T12:58:47;13.85;;;2.53;;
27187;SDS011;14708;50.872;5.306;2023-12-20T13:01:12;7.82;;;2.00;;
27187;SDS011;14708;50.872;5.306;2023-12-20T13:03:39;10.15;;;2.05;;
27187;SDS011;14708;50.872;5.306;2023-12-20T13:06:04;11.82;;;2.38;;
27187;SDS011;14708;50.872;5.306;2023-12-20T13:08:31;4.38;;;1.55;;
27187;SDS011;14708;50.872;5.306;2023-12-20T13:10:57;23.42;;;2.60;;
27187;SDS011;14708;50.872;5.306;2023-12-20T13:13:25;4.00;;;1.30;;
27187;SDS011;14708;50.872;5.306;2023-12-20T13:15:51;3.47;;;1.58;;
27187;SDS011;14708;50.872;5.306;2023-12-20T13:18:20;4.88;;;1.70;;
27187;SDS011;14708;50.872;5.306;2023-12-20T13:20:46;7.50;;;2.17;;
27187;SDS011;14708;50.872;5.306;2023-12-20T13:23:12;7.07;;;2.25;;
27187;SDS011;14708;50.872;5.306;2023-12-20T13:25:39;5.32;;;1.65;;
27187;SDS011;14708;50.872;5.306;2023-12-20T13:28:05;6.88;;;2.72;;
27187;SDS011;14708;50.872;5.306;2023-12-20T13:30:31;4.88;;;2.22;;
27187;SDS011;14708;50.872;5.306;2023-12-20T13:32:56;5.47;;;1.88;;
27187;SDS011;14708;50.872;5.306;2023-12-20T13:35:22;6.03;;;2.10;;
27187;SDS011;14708;50.872;5.306;2023-12-20T13:37:48;8.85;;;2.20;;
27187;SDS011;14708;50.872;5.306;2023-12-20T13:40:13;5.50;;;1.95;;
27187;SDS011;14708;50.872;5.306;2023-12-20T13:42:39;6.50;;;2.42;;
27187;SDS011;14708;50.872;5.306;2023-12-20T13:45:05;10.23;;;2.85;;
27187;SDS011;14708;50.872;5.306;2023-12-20T13:47:31;9.95;;;3.55;;
27187;SDS011;14708;50.872;5.306;2023-12-20T13:49:57;14.15;;;2.83;;
27187;SDS011;14708;50.872;5.306;2023-12-20T13:52:23;8.43;;;3.20;;
27187;SDS011;14708;50.872;5.306;2023-12-20T13:54:49;13.60;;;3.95;;
27187;SDS011;14708;50.872;5.306;2023-12-20T13:57:15;7.38;;;2.88;;
27187;SDS011;14708;50.872;5.306;2023-12-20T13:59:40;6.88;;;3.22;;
27187;SDS011;14708;50.872;5.306;2023-12-20T14:02:06;8.80;;;2.80;;
27187;SDS011;14708;50.872;5.306;2023-12-20T14:04:32;9.05;;;3.58;;
27187;SDS011;14708;50.872;5.306;2023-12-20T14:06:57;9.15;;;3.40;;
27187;SDS011;14708;50.872;5.306;2023-12-20T14:09:23;8.77;;;3.17;;
27187;SDS011;14708;50.872;5.306;2023-12-20T14:11:49;8.13;;;3.15;;
27187;SDS011;14708;50.872;5.306;2023-12-20T14:14:15;6.35;;;3.30;;
27187;SDS011;14708;50.872;5.306;2023-12-20T14:16:41;6.95;;;2.65;;
27187;SDS011;14708;50.872;5.306;2023-12-20T14:19:10;9.27;;;2.90;;
27187;SDS011;14708;50.872;5.306;2023-12-20T14:21:36;7.88;;;2.75;;
27187;SDS011;14708;50.872;5.306;2023-12-20T14:24:01;6.80;;;2.78;;
27187;SDS011;14708;50.872;5.306;2023-12-20T14:26:29;6.72;;;2.20;;
27187;SDS011;14708;50.872;5.306;2023-12-20T14:28:55;7.80;;;2.90;;
27187;SDS011;14708;50.872;5.306;2023-12-20T14:31:21;7.35;;;3.10;;
27187;SDS011;14708;50.872;5.306;2023-12-20T14:33:49;6.82;;;3.63;;
27187;SDS011;14708;50.872;5.306;2023-12-20T14:36:15;6.57;;;2.95;;
27187;SDS011;14708;50.872;5.306;2023-12-20T14:38:43;8.43;;;3.40;;
27187;SDS011;14708;50.872;5.306;2023-12-20T14:41:09;5.40;;;2.40;;
27187;SDS011;14708;50.872;5.306;2023-12-20T14:43:34;6.85;;;2.42;;
27187;SDS011;14708;50.872;5.306;2023-12-20T14:46:00;7.10;;;2.70;;
27187;SDS011;14708;50.872;5.306;2023-12-20T14:48:26;8.45;;;2.85;;
27187;SDS011;14708;50.872;5.306;2023-12-20T14:50:53;6.43;;;3.28;;
27187;SDS011;14708;50.872;5.306;2023-12-20T14:53:19;7.47;;;3.00;;
27187;SDS011;14708;50.872;5.306;2023-12-20T14:55:45;7.05;;;2.78;;
27187;SDS011;14708;50.872;5.306;2023-12-20T14:58:12;6.05;;;2.72;;